sensor_id;sensor_type;location;lat;lon;timestamp;P1;durP1;ratioP1;P2;durP2;ratioP2
16282;SDS011;8249;48.708;9.030;2022-08-19T00:00:21;16.00;;;14.50;;
16282;SDS011;8249;48.708;9.030;2022-08-19T00:02:48;16.50;;;14.85;;
16282;SDS011;8249;48.708;9.030;2022-08-19T00:05:16;18.37;;;15.07;;
16282;SDS011;8249;48.708;9.030;2022-08-19T00:07:44;16.30;;;14.77;;
16282;SDS011;8249;48.708;9.030;2022-08-19T00:10:12;15.83;;;14.13;;
16282;SDS011;8249;48.708;9.030;2022-08-19T00:12:41;17.25;;;14.57;;
16282;SDS011;8249;48.708;9.030;2022-08-19T00:15:10;16.00;;;14.45;;
16282;SDS011;8249;48.708;9.030;2022-08-19T00:17:40;16.77;;;15.00;;
16282;SDS011;8249;48.708;9.030;2022-08-19T00:20:16;16.30;;;14.57;;
16282;SDS011;8249;48.708;9.030;2022-08-19T00:22:45;16.77;;;14.67;;
16282;SDS011;8249;48.708;9.030;2022-08-19T00:25:13;16.30;;;14.70;;
16282;SDS011;8249;48.708;9.030;2022-08-19T00:27:41;17.13;;;15.48;;
16282;SDS011;8249;48.708;9.030;2022-08-19T00:30:08;16.57;;;14.90;;
16282;SDS011;8249;48.708;9.030;2022-08-19T00:32:36;17.95;;;16.08;;
16282;SDS011;8249;48.708;9.030;2022-08-19T00:35:07;16.67;;;15.07;;
16282;SDS011;8249;48.708;9.030;2022-08-19T00:37:34;16.83;;;14.88;;
16282;SDS011;8249;48.708;9.030;2022-08-19T00:40:03;17.23;;;15.53;;
16282;SDS011;8249;48.708;9.030;2022-08-19T00:42:32;17.67;;;15.80;;
16282;SDS011;8249;48.708;9.030;2022-08-19T00:44:59;17.67;;;15.73;;
16282;SDS011;8249;48.708;9.030;2022-08-19T00:47:26;18.67;;;16.27;;
16282;SDS011;8249;48.708;9.030;2022-08-19T00:49:54;19.25;;;16.40;;
16282;SDS011;8249;48.708;9.030;2022-08-19T00:52:26;17.80;;;15.90;;
16282;SDS011;8249;48.708;9.030;2022-08-19T00:54:58;17.20;;;15.30;;
16282;SDS011;8249;48.708;9.030;2022-08-19T00:57:26;18.43;;;16.43;;
16282;SDS011;8249;48.708;9.030;2022-08-19T00:59:56;18.53;;;16.63;;
16282;SDS011;8249;48.708;9.030;2022-08-19T01:02:25;18.43;;;16.30;;
16282;SDS011;8249;48.708;9.030;2022-08-19T01:04:54;17.58;;;15.77;;
16282;SDS011;8249;48.708;9.030;2022-08-19T01:07:21;18.50;;;16.00;;
16282;SDS011;8249;48.708;9.030;2022-08-19T01:09:50;16.98;;;15.18;;
16282;SDS011;8249;48.708;9.030;2022-08-19T01:12:18;19.27;;;16.77;;
16282;SDS011;8249;48.708;9.030;2022-08-19T01:14:45;18.15;;;16.33;;
16282;SDS011;8249;48.708;9.030;2022-08-19T01:17:13;18.40;;;16.50;;
16282;SDS011;8249;48.708;9.030;2022-08-19T01:19:42;18.60;;;16.43;;
16282;SDS011;8249;48.708;9.030;2022-08-19T01:22:12;19.43;;;17.43;;
16282;SDS011;8249;48.708;9.030;2022-08-19T01:24:44;19.87;;;17.10;;
16282;SDS011;8249;48.708;9.030;2022-08-19T01:27:11;19.40;;;17.07;;
16282;SDS011;8249;48.708;9.030;2022-08-19T01:29:38;20.10;;;18.00;;
16282;SDS011;8249;48.708;9.030;2022-08-19T01:32:07;22.23;;;18.00;;
16282;SDS011;8249;48.708;9.030;2022-08-19T01:34:37;20.77;;;18.47;;
16282;SDS011;8249;48.708;9.030;2022-08-19T01:37:05;20.33;;;18.13;;
16282;SDS011;8249;48.708;9.030;2022-08-19T01:39:37;19.37;;;16.73;;
16282;SDS011;8249;48.708;9.030;2022-08-19T01:42:06;21.70;;;18.07;;
16282;SDS011;8249;48.708;9.030;2022-08-19T01:44:36;20.47;;;17.53;;
16282;SDS011;8249;48.708;9.030;2022-08-19T01:47:03;20.23;;;18.07;;
16282;SDS011;8249;48.708;9.030;2022-08-19T01:49:31;22.43;;;18.77;;
16282;SDS011;8249;48.708;9.030;2022-08-19T01:51:59;19.73;;;17.73;;
16282;SDS011;8249;48.708;9.030;2022-08-19T01:54:26;21.10;;;18.43;;
16282;SDS011;8249;48.708;9.030;2022-08-19T01:56:55;21.57;;;19.33;;
16282;SDS011;8249;48.708;9.030;2022-08-19T01:59:26;20.73;;;18.53;;
16282;SDS011;8249;48.708;9.030;2022-08-19T02:01:55;21.80;;;18.33;;
16282;SDS011;8249;48.708;9.030;2022-08-19T02:04:22;21.93;;;18.50;;
16282;SDS011;8249;48.708;9.030;2022-08-19T02:06:50;21.20;;;18.90;;
16282;SDS011;8249;48.708;9.030;2022-08-19T02:09:17;22.47;;;18.40;;
16282;SDS011;8249;48.708;9.030;2022-08-19T02:11:44;21.27;;;18.20;;
16282;SDS011;8249;48.708;9.030;2022-08-19T02:14:11;22.33;;;19.10;;
16282;SDS011;8249;48.708;9.030;2022-08-19T02:16:40;23.23;;;19.37;;
16282;SDS011;8249;48.708;9.030;2022-08-19T02:19:07;23.03;;;19.73;;
16282;SDS011;8249;48.708;9.030;2022-08-19T02:21:35;21.13;;;18.80;;
16282;SDS011;8249;48.708;9.030;2022-08-19T02:24:03;21.33;;;18.93;;
16282;SDS011;8249;48.708;9.030;2022-08-19T02:26:31;22.27;;;18.87;;
16282;SDS011;8249;48.708;9.030;2022-08-19T02:28:58;22.20;;;19.70;;
16282;SDS011;8249;48.708;9.030;2022-08-19T02:31:25;22.17;;;19.87;;
16282;SDS011;8249;48.708;9.030;2022-08-19T02:33:55;20.43;;;18.20;;
16282;SDS011;8249;48.708;9.030;2022-08-19T02:36:23;23.33;;;19.77;;
16282;SDS011;8249;48.708;9.030;2022-08-19T02:38:51;24.57;;;20.10;;
16282;SDS011;8249;48.708;9.030;2022-08-19T02:41:18;24.20;;;20.07;;
16282;SDS011;8249;48.708;9.030;2022-08-19T02:43:46;22.33;;;19.93;;
16282;SDS011;8249;48.708;9.030;2022-08-19T02:46:15;24.60;;;20.23;;
16282;SDS011;8249;48.708;9.030;2022-08-19T02:48:46;26.53;;;20.03;;
16282;SDS011;8249;48.708;9.030;2022-08-19T02:51:19;23.93;;;21.10;;
16282;SDS011;8249;48.708;9.030;2022-08-19T02:53:48;25.73;;;20.13;;
16282;SDS011;8249;48.708;9.030;2022-08-19T02:56:15;22.33;;;19.57;;
16282;SDS011;8249;48.708;9.030;2022-08-19T02:58:42;24.97;;;21.07;;
16282;SDS011;8249;48.708;9.030;2022-08-19T03:01:10;22.67;;;20.20;;
16282;SDS011;8249;48.708;9.030;2022-08-19T03:03:45;23.77;;;20.87;;
16282;SDS011;8249;48.708;9.030;2022-08-19T03:06:13;23.00;;;19.87;;
16282;SDS011;8249;48.708;9.030;2022-08-19T03:08:43;24.50;;;21.40;;
16282;SDS011;8249;48.708;9.030;2022-08-19T03:11:12;24.77;;;20.87;;
16282;SDS011;8249;48.708;9.030;2022-08-19T03:13:40;25.10;;;21.57;;
16282;SDS011;8249;48.708;9.030;2022-08-19T03:16:08;25.47;;;20.97;;
16282;SDS011;8249;48.708;9.030;2022-08-19T03:18:35;24.07;;;21.30;;
16282;SDS011;8249;48.708;9.030;2022-08-19T03:21:02;24.13;;;21.07;;
16282;SDS011;8249;48.708;9.030;2022-08-19T03:23:30;24.47;;;21.43;;
16282;SDS011;8249;48.708;9.030;2022-08-19T03:25:59;27.13;;;22.43;;
16282;SDS011;8249;48.708;9.030;2022-08-19T03:28:30;24.70;;;21.57;;
16282;SDS011;8249;48.708;9.030;2022-08-19T03:30:59;24.83;;;22.20;;
16282;SDS011;8249;48.708;9.030;2022-08-19T03:33:28;25.03;;;21.67;;
16282;SDS011;8249;48.708;9.030;2022-08-19T03:36:03;25.53;;;22.77;;
16282;SDS011;8249;48.708;9.030;2022-08-19T03:38:33;26.03;;;22.90;;
16282;SDS011;8249;48.708;9.030;2022-08-19T03:41:06;25.77;;;22.40;;
16282;SDS011;8249;48.708;9.030;2022-08-19T03:43:34;26.97;;;22.87;;
16282;SDS011;8249;48.708;9.030;2022-08-19T03:46:03;27.37;;;22.77;;
16282;SDS011;8249;48.708;9.030;2022-08-19T03:48:32;25.57;;;22.93;;
16282;SDS011;8249;48.708;9.030;2022-08-19T03:51:00;28.23;;;23.10;;
16282;SDS011;8249;48.708;9.030;2022-08-19T03:53:28;26.37;;;23.07;;
16282;SDS011;8249;48.708;9.030;2022-08-19T03:55:57;26.63;;;23.77;;
16282;SDS011;8249;48.708;9.030;2022-08-19T03:58:27;29.00;;;23.53;;
16282;SDS011;8249;48.708;9.030;2022-08-19T04:00:55;26.67;;;23.73;;
16282;SDS011;8249;48.708;9.030;2022-08-19T04:03:23;26.63;;;22.50;;
16282;SDS011;8249;48.708;9.030;2022-08-19T04:05:51;26.23;;;23.47;;
16282;SDS011;8249;48.708;9.030;2022-08-19T04:08:18;26.23;;;23.40;;
16282;SDS011;8249;48.708;9.030;2022-08-19T04:10:47;25.47;;;22.77;;
16282;SDS011;8249;48.708;9.030;2022-08-19T04:13:16;26.33;;;23.57;;
16282;SDS011;8249;48.708;9.030;2022-08-19T04:15:45;27.17;;;24.47;;
16282;SDS011;8249;48.708;9.030;2022-08-19T04:18:12;25.93;;;23.23;;
16282;SDS011;8249;48.708;9.030;2022-08-19T04:20:40;27.53;;;24.53;;
16282;SDS011;8249;48.708;9.030;2022-08-19T04:23:09;27.73;;;24.67;;
16282;SDS011;8249;48.708;9.030;2022-08-19T04:25:37;30.07;;;24.80;;
16282;SDS011;8249;48.708;9.030;2022-08-19T04:28:05;28.37;;;24.17;;
16282;SDS011;8249;48.708;9.030;2022-08-19T04:30:38;27.20;;;24.30;;
16282;SDS011;8249;48.708;9.030;2022-08-19T04:33:08;26.67;;;23.77;;
16282;SDS011;8249;48.708;9.030;2022-08-19T04:35:36;30.17;;;24.90;;
16282;SDS011;8249;48.708;9.030;2022-08-19T04:38:04;30.27;;;26.17;;
16282;SDS011;8249;48.708;9.030;2022-08-19T04:40:32;29.20;;;25.00;;
16282;SDS011;8249;48.708;9.030;2022-08-19T04:43:17;27.77;;;24.77;;
16282;SDS011;8249;48.708;9.030;2022-08-19T04:45:44;29.93;;;25.60;;
16282;SDS011;8249;48.708;9.030;2022-08-19T04:48:13;30.67;;;25.27;;
16282;SDS011;8249;48.708;9.030;2022-08-19T04:50:41;29.93;;;26.07;;
16282;SDS011;8249;48.708;9.030;2022-08-19T04:53:09;31.20;;;25.13;;
16282;SDS011;8249;48.708;9.030;2022-08-19T04:55:40;29.60;;;26.40;;
16282;SDS011;8249;48.708;9.030;2022-08-19T04:58:07;28.10;;;25.10;;
16282;SDS011;8249;48.708;9.030;2022-08-19T05:00:37;30.47;;;25.83;;
16282;SDS011;8249;48.708;9.030;2022-08-19T05:03:05;26.87;;;23.97;;
16282;SDS011;8249;48.708;9.030;2022-08-19T05:05:37;28.13;;;24.47;;
16282;SDS011;8249;48.708;9.030;2022-08-19T05:08:05;27.93;;;24.87;;
16282;SDS011;8249;48.708;9.030;2022-08-19T05:10:34;30.27;;;26.90;;
16282;SDS011;8249;48.708;9.030;2022-08-19T05:13:01;29.47;;;26.33;;
16282;SDS011;8249;48.708;9.030;2022-08-19T05:15:29;31.30;;;25.63;;
16282;SDS011;8249;48.708;9.030;2022-08-19T05:17:56;28.60;;;25.60;;
16282;SDS011;8249;48.708;9.030;2022-08-19T05:20:42;30.70;;;26.53;;
16282;SDS011;8249;48.708;9.030;2022-08-19T05:23:26;29.70;;;26.23;;
16282;SDS011;8249;48.708;9.030;2022-08-19T05:25:53;28.70;;;25.30;;
16282;SDS011;8249;48.708;9.030;2022-08-19T05:28:20;30.23;;;26.63;;
16282;SDS011;8249;48.708;9.030;2022-08-19T05:30:47;34.40;;;27.30;;
16282;SDS011;8249;48.708;9.030;2022-08-19T05:33:16;30.63;;;26.50;;
16282;SDS011;8249;48.708;9.030;2022-08-19T05:35:44;31.97;;;26.90;;
16282;SDS011;8249;48.708;9.030;2022-08-19T05:38:13;29.90;;;25.73;;
16282;SDS011;8249;48.708;9.030;2022-08-19T05:40:40;30.67;;;26.47;;
16282;SDS011;8249;48.708;9.030;2022-08-19T05:43:11;32.40;;;27.87;;
16282;SDS011;8249;48.708;9.030;2022-08-19T05:45:40;29.00;;;25.33;;
16282;SDS011;8249;48.708;9.030;2022-08-19T05:48:08;31.90;;;25.60;;
16282;SDS011;8249;48.708;9.030;2022-08-19T05:50:36;32.80;;;25.70;;
16282;SDS011;8249;48.708;9.030;2022-08-19T05:53:05;30.27;;;24.83;;
16282;SDS011;8249;48.708;9.030;2022-08-19T05:55:33;29.17;;;25.77;;
16282;SDS011;8249;48.708;9.030;2022-08-19T05:58:02;27.77;;;24.77;;
16282;SDS011;8249;48.708;9.030;2022-08-19T06:00:29;34.43;;;25.10;;
16282;SDS011;8249;48.708;9.030;2022-08-19T06:02:56;32.20;;;25.67;;
16282;SDS011;8249;48.708;9.030;2022-08-19T06:05:28;29.53;;;25.23;;
16282;SDS011;8249;48.708;9.030;2022-08-19T06:07:55;26.83;;;23.97;;
16282;SDS011;8249;48.708;9.030;2022-08-19T06:10:25;30.67;;;25.93;;
16282;SDS011;8249;48.708;9.030;2022-08-19T06:12:52;28.00;;;24.97;;
16282;SDS011;8249;48.708;9.030;2022-08-19T06:15:19;29.50;;;25.60;;
16282;SDS011;8249;48.708;9.030;2022-08-19T06:17:51;27.87;;;24.83;;
16282;SDS011;8249;48.708;9.030;2022-08-19T06:20:18;27.60;;;24.80;;
16282;SDS011;8249;48.708;9.030;2022-08-19T06:22:46;29.93;;;25.57;;
16282;SDS011;8249;48.708;9.030;2022-08-19T06:25:17;29.23;;;26.03;;
16282;SDS011;8249;48.708;9.030;2022-08-19T06:27:45;28.73;;;25.20;;
16282;SDS011;8249;48.708;9.030;2022-08-19T06:30:12;28.37;;;24.63;;
16282;SDS011;8249;48.708;9.030;2022-08-19T06:32:40;27.30;;;24.33;;
16282;SDS011;8249;48.708;9.030;2022-08-19T06:35:07;29.13;;;25.90;;
16282;SDS011;8249;48.708;9.030;2022-08-19T06:37:36;29.20;;;25.10;;
16282;SDS011;8249;48.708;9.030;2022-08-19T06:40:03;27.93;;;24.80;;
16282;SDS011;8249;48.708;9.030;2022-08-19T06:42:33;28.50;;;25.30;;
16282;SDS011;8249;48.708;9.030;2022-08-19T06:45:03;28.07;;;25.13;;
16282;SDS011;8249;48.708;9.030;2022-08-19T06:47:33;30.30;;;24.47;;
16282;SDS011;8249;48.708;9.030;2022-08-19T06:50:01;28.63;;;25.00;;
16282;SDS011;8249;48.708;9.030;2022-08-19T06:52:29;26.60;;;22.93;;
16282;SDS011;8249;48.708;9.030;2022-08-19T06:54:57;26.20;;;23.33;;
16282;SDS011;8249;48.708;9.030;2022-08-19T06:57:24;28.50;;;23.50;;
16282;SDS011;8249;48.708;9.030;2022-08-19T06:59:53;26.40;;;23.53;;
16282;SDS011;8249;48.708;9.030;2022-08-19T07:02:22;26.63;;;22.73;;
16282;SDS011;8249;48.708;9.030;2022-08-19T07:04:51;24.80;;;22.20;;
16282;SDS011;8249;48.708;9.030;2022-08-19T07:07:19;28.03;;;22.13;;
16282;SDS011;8249;48.708;9.030;2022-08-19T07:09:47;26.53;;;23.70;;
16282;SDS011;8249;48.708;9.030;2022-08-19T07:12:15;27.70;;;23.50;;
16282;SDS011;8249;48.708;9.030;2022-08-19T07:14:42;25.97;;;22.53;;
16282;SDS011;8249;48.708;9.030;2022-08-19T07:17:11;24.30;;;21.37;;
16282;SDS011;8249;48.708;9.030;2022-08-19T07:19:40;24.50;;;21.90;;
16282;SDS011;8249;48.708;9.030;2022-08-19T07:22:08;24.77;;;21.97;;
16282;SDS011;8249;48.708;9.030;2022-08-19T07:24:36;27.67;;;22.23;;
16282;SDS011;8249;48.708;9.030;2022-08-19T07:27:04;22.60;;;19.90;;
16282;SDS011;8249;48.708;9.030;2022-08-19T07:29:33;24.90;;;20.77;;
16282;SDS011;8249;48.708;9.030;2022-08-19T07:32:01;21.52;;;19.25;;
16282;SDS011;8249;48.708;9.030;2022-08-19T07:34:30;22.33;;;20.02;;
16282;SDS011;8249;48.708;9.030;2022-08-19T07:37:00;21.90;;;19.63;;
16282;SDS011;8249;48.708;9.030;2022-08-19T07:39:29;23.58;;;20.13;;
16282;SDS011;8249;48.708;9.030;2022-08-19T07:41:58;22.95;;;20.45;;
16282;SDS011;8249;48.708;9.030;2022-08-19T07:44:27;23.27;;;19.70;;
16282;SDS011;8249;48.708;9.030;2022-08-19T07:46:55;20.50;;;18.42;;
16282;SDS011;8249;48.708;9.030;2022-08-19T07:49:25;21.27;;;18.55;;
16282;SDS011;8249;48.708;9.030;2022-08-19T07:51:53;22.13;;;19.77;;
16282;SDS011;8249;48.708;9.030;2022-08-19T07:54:23;20.97;;;18.77;;
16282;SDS011;8249;48.708;9.030;2022-08-19T07:56:52;20.53;;;18.40;;
16282;SDS011;8249;48.708;9.030;2022-08-19T07:59:19;20.33;;;18.30;;
16282;SDS011;8249;48.708;9.030;2022-08-19T08:01:47;21.30;;;19.00;;
16282;SDS011;8249;48.708;9.030;2022-08-19T08:04:15;21.48;;;19.20;;
16282;SDS011;8249;48.708;9.030;2022-08-19T08:07:00;22.37;;;19.87;;
16282;SDS011;8249;48.708;9.030;2022-08-19T08:09:46;23.50;;;20.23;;
16282;SDS011;8249;48.708;9.030;2022-08-19T08:12:14;23.75;;;20.48;;
16282;SDS011;8249;48.708;9.030;2022-08-19T08:14:44;22.00;;;19.70;;
16282;SDS011;8249;48.708;9.030;2022-08-19T08:17:13;21.30;;;18.93;;
16282;SDS011;8249;48.708;9.030;2022-08-19T08:19:41;26.30;;;21.27;;
16282;SDS011;8249;48.708;9.030;2022-08-19T08:22:09;23.50;;;20.93;;
16282;SDS011;8249;48.708;9.030;2022-08-19T08:25:03;22.63;;;20.17;;
16282;SDS011;8249;48.708;9.030;2022-08-19T08:27:33;22.00;;;19.60;;
16282;SDS011;8249;48.708;9.030;2022-08-19T08:30:05;23.87;;;20.60;;
16282;SDS011;8249;48.708;9.030;2022-08-19T08:32:34;23.07;;;20.57;;
16282;SDS011;8249;48.708;9.030;2022-08-19T08:35:02;22.05;;;19.45;;
16282;SDS011;8249;48.708;9.030;2022-08-19T08:37:30;25.08;;;20.02;;
16282;SDS011;8249;48.708;9.030;2022-08-19T08:39:57;21.77;;;19.48;;
16282;SDS011;8249;48.708;9.030;2022-08-19T08:42:27;20.23;;;18.17;;
16282;SDS011;8249;48.708;9.030;2022-08-19T08:44:58;21.57;;;19.37;;
16282;SDS011;8249;48.708;9.030;2022-08-19T08:47:28;21.50;;;19.30;;
16282;SDS011;8249;48.708;9.030;2022-08-19T08:50:01;21.00;;;18.80;;
16282;SDS011;8249;48.708;9.030;2022-08-19T08:52:33;21.53;;;19.23;;
16282;SDS011;8249;48.708;9.030;2022-08-19T08:55:05;20.27;;;18.03;;
16282;SDS011;8249;48.708;9.030;2022-08-19T08:57:39;20.67;;;18.47;;
16282;SDS011;8249;48.708;9.030;2022-08-19T09:00:17;20.47;;;18.53;;
16282;SDS011;8249;48.708;9.030;2022-08-19T09:02:46;21.55;;;19.08;;
16282;SDS011;8249;48.708;9.030;2022-08-19T09:05:14;19.80;;;17.80;;
16282;SDS011;8249;48.708;9.030;2022-08-19T09:07:42;20.40;;;17.33;;
16282;SDS011;8249;48.708;9.030;2022-08-19T09:13:04;21.27;;;18.70;;
16282;SDS011;8249;48.708;9.030;2022-08-19T09:15:40;22.00;;;18.13;;
16282;SDS011;8249;48.708;9.030;2022-08-19T09:18:11;19.95;;;17.83;;
16282;SDS011;8249;48.708;9.030;2022-08-19T09:20:38;20.73;;;18.73;;
16282;SDS011;8249;48.708;9.030;2022-08-19T09:23:05;19.15;;;17.00;;
16282;SDS011;8249;48.708;9.030;2022-08-19T09:25:33;20.27;;;18.17;;
16282;SDS011;8249;48.708;9.030;2022-08-19T09:28:00;19.53;;;17.43;;
16282;SDS011;8249;48.708;9.030;2022-08-19T09:30:30;18.95;;;17.13;;
16282;SDS011;8249;48.708;9.030;2022-08-19T09:32:58;19.33;;;17.42;;
16282;SDS011;8249;48.708;9.030;2022-08-19T09:35:27;18.83;;;16.92;;
16282;SDS011;8249;48.708;9.030;2022-08-19T09:37:55;18.60;;;16.70;;
16282;SDS011;8249;48.708;9.030;2022-08-19T09:40:23;18.85;;;16.88;;
16282;SDS011;8249;48.708;9.030;2022-08-19T09:42:51;19.00;;;16.42;;
16282;SDS011;8249;48.708;9.030;2022-08-19T09:45:20;24.98;;;16.75;;
16282;SDS011;8249;48.708;9.030;2022-08-19T09:47:48;18.35;;;16.33;;
16282;SDS011;8249;48.708;9.030;2022-08-19T09:50:16;19.40;;;17.20;;
16282;SDS011;8249;48.708;9.030;2022-08-19T09:52:43;19.63;;;17.02;;
16282;SDS011;8249;48.708;9.030;2022-08-19T09:55:11;19.60;;;17.67;;
16282;SDS011;8249;48.708;9.030;2022-08-19T09:57:38;18.42;;;16.48;;
16282;SDS011;8249;48.708;9.030;2022-08-19T10:00:06;18.27;;;16.35;;
16282;SDS011;8249;48.708;9.030;2022-08-19T10:02:36;18.15;;;16.45;;
16282;SDS011;8249;48.708;9.030;2022-08-19T10:05:03;17.50;;;15.93;;
16282;SDS011;8249;48.708;9.030;2022-08-19T10:07:48;15.85;;;14.35;;
16282;SDS011;8249;48.708;9.030;2022-08-19T10:10:16;16.77;;;15.27;;
16282;SDS011;8249;48.708;9.030;2022-08-19T10:12:43;17.77;;;15.63;;
16282;SDS011;8249;48.708;9.030;2022-08-19T10:15:12;19.25;;;16.05;;
16282;SDS011;8249;48.708;9.030;2022-08-19T10:17:41;17.50;;;15.98;;
16282;SDS011;8249;48.708;9.030;2022-08-19T10:20:08;17.17;;;15.13;;
16282;SDS011;8249;48.708;9.030;2022-08-19T10:22:36;15.52;;;13.93;;
16282;SDS011;8249;48.708;9.030;2022-08-19T10:25:04;16.63;;;14.93;;
16282;SDS011;8249;48.708;9.030;2022-08-19T10:27:32;16.00;;;14.38;;
16282;SDS011;8249;48.708;9.030;2022-08-19T10:29:59;15.70;;;14.10;;
16282;SDS011;8249;48.708;9.030;2022-08-19T10:32:26;15.25;;;13.45;;
16282;SDS011;8249;48.708;9.030;2022-08-19T10:34:55;15.10;;;13.50;;
16282;SDS011;8249;48.708;9.030;2022-08-19T10:37:23;17.30;;;13.18;;
16282;SDS011;8249;48.708;9.030;2022-08-19T10:39:50;13.73;;;12.43;;
16282;SDS011;8249;48.708;9.030;2022-08-19T10:42:17;13.45;;;12.15;;
16282;SDS011;8249;48.708;9.030;2022-08-19T10:44:45;15.77;;;12.77;;
16282;SDS011;8249;48.708;9.030;2022-08-19T10:47:13;13.70;;;12.40;;
16282;SDS011;8249;48.708;9.030;2022-08-19T10:49:40;14.18;;;11.52;;
16282;SDS011;8249;48.708;9.030;2022-08-19T10:52:22;12.52;;;11.40;;
16282;SDS011;8249;48.708;9.030;2022-08-19T10:55:02;12.05;;;10.85;;
16282;SDS011;8249;48.708;9.030;2022-08-19T10:57:49;13.02;;;11.57;;
16282;SDS011;8249;48.708;9.030;2022-08-19T11:00:18;11.30;;;10.13;;
16282;SDS011;8249;48.708;9.030;2022-08-19T11:02:45;11.50;;;10.30;;
16282;SDS011;8249;48.708;9.030;2022-08-19T11:05:12;10.85;;;9.80;;
16282;SDS011;8249;48.708;9.030;2022-08-19T11:07:41;11.05;;;9.95;;
16282;SDS011;8249;48.708;9.030;2022-08-19T11:10:10;12.45;;;10.20;;
16282;SDS011;8249;48.708;9.030;2022-08-19T11:12:39;14.55;;;10.75;;
16282;SDS011;8249;48.708;9.030;2022-08-19T11:15:07;11.63;;;10.43;;
16282;SDS011;8249;48.708;9.030;2022-08-19T11:17:36;11.88;;;10.65;;
16282;SDS011;8249;48.708;9.030;2022-08-19T11:20:05;13.02;;;11.82;;
16282;SDS011;8249;48.708;9.030;2022-08-19T11:22:33;13.07;;;10.55;;
16282;SDS011;8249;48.708;9.030;2022-08-19T11:25:03;11.35;;;10.35;;
16282;SDS011;8249;48.708;9.030;2022-08-19T11:27:30;12.27;;;11.15;;
16282;SDS011;8249;48.708;9.030;2022-08-19T11:29:57;12.50;;;10.48;;
16282;SDS011;8249;48.708;9.030;2022-08-19T11:32:24;11.68;;;10.57;;
16282;SDS011;8249;48.708;9.030;2022-08-19T11:34:52;11.15;;;10.15;;
16282;SDS011;8249;48.708;9.030;2022-08-19T11:37:19;12.90;;;11.30;;
16282;SDS011;8249;48.708;9.030;2022-08-19T11:39:46;10.65;;;8.85;;
16282;SDS011;8249;48.708;9.030;2022-08-19T11:42:17;10.90;;;9.80;;
16282;SDS011;8249;48.708;9.030;2022-08-19T11:45:02;10.70;;;9.55;;
16282;SDS011;8249;48.708;9.030;2022-08-19T11:47:30;12.50;;;10.27;;
16282;SDS011;8249;48.708;9.030;2022-08-19T11:49:58;11.27;;;9.80;;
16282;SDS011;8249;48.708;9.030;2022-08-19T11:52:25;10.52;;;9.32;;
16282;SDS011;8249;48.708;9.030;2022-08-19T11:54:52;10.30;;;9.13;;
16282;SDS011;8249;48.708;9.030;2022-08-19T11:57:20;10.10;;;8.73;;
16282;SDS011;8249;48.708;9.030;2022-08-19T11:59:47;11.57;;;9.30;;
16282;SDS011;8249;48.708;9.030;2022-08-19T12:02:15;9.05;;;8.15;;
16282;SDS011;8249;48.708;9.030;2022-08-19T12:04:42;8.80;;;7.90;;
16282;SDS011;8249;48.708;9.030;2022-08-19T12:07:09;8.68;;;7.93;;
16282;SDS011;8249;48.708;9.030;2022-08-19T12:09:36;8.50;;;7.78;;
16282;SDS011;8249;48.708;9.030;2022-08-19T12:12:04;8.98;;;8.07;;
16282;SDS011;8249;48.708;9.030;2022-08-19T12:14:33;8.98;;;8.10;;
16282;SDS011;8249;48.708;9.030;2022-08-19T12:17:00;8.82;;;8.07;;
16282;SDS011;8249;48.708;9.030;2022-08-19T12:19:29;8.02;;;6.93;;
16282;SDS011;8249;48.708;9.030;2022-08-19T12:21:58;8.73;;;7.93;;
16282;SDS011;8249;48.708;9.030;2022-08-19T12:24:29;9.50;;;7.43;;
16282;SDS011;8249;48.708;9.030;2022-08-19T12:26:57;9.73;;;7.40;;
16282;SDS011;8249;48.708;9.030;2022-08-19T12:29:26;8.63;;;7.78;;
16282;SDS011;8249;48.708;9.030;2022-08-19T12:31:56;8.23;;;7.32;;
16282;SDS011;8249;48.708;9.030;2022-08-19T12:34:27;7.60;;;6.95;;
16282;SDS011;8249;48.708;9.030;2022-08-19T12:36:56;7.70;;;7.10;;
16282;SDS011;8249;48.708;9.030;2022-08-19T12:39:23;7.93;;;6.93;;
16282;SDS011;8249;48.708;9.030;2022-08-19T12:41:51;7.63;;;6.68;;
16282;SDS011;8249;48.708;9.030;2022-08-19T12:44:18;7.53;;;6.78;;
16282;SDS011;8249;48.708;9.030;2022-08-19T12:46:46;7.47;;;6.88;;
16282;SDS011;8249;48.708;9.030;2022-08-19T12:49:15;8.88;;;6.13;;
16282;SDS011;8249;48.708;9.030;2022-08-19T12:51:42;6.60;;;6.10;;
16282;SDS011;8249;48.708;9.030;2022-08-19T12:54:09;8.38;;;6.50;;
16282;SDS011;8249;48.708;9.030;2022-08-19T12:56:36;6.57;;;6.03;;
16282;SDS011;8249;48.708;9.030;2022-08-19T12:59:03;6.72;;;6.05;;
16282;SDS011;8249;48.708;9.030;2022-08-19T13:01:33;8.65;;;6.15;;
16282;SDS011;8249;48.708;9.030;2022-08-19T13:04:00;9.02;;;6.30;;
16282;SDS011;8249;48.708;9.030;2022-08-19T13:06:28;7.32;;;6.57;;
16282;SDS011;8249;48.708;9.030;2022-08-19T13:08:55;7.43;;;6.72;;
16282;SDS011;8249;48.708;9.030;2022-08-19T13:11:23;7.15;;;6.45;;
16282;SDS011;8249;48.708;9.030;2022-08-19T13:13:50;6.88;;;6.28;;
16282;SDS011;8249;48.708;9.030;2022-08-19T13:16:20;7.47;;;6.10;;
16282;SDS011;8249;48.708;9.030;2022-08-19T13:18:47;7.60;;;6.90;;
16282;SDS011;8249;48.708;9.030;2022-08-19T13:21:17;7.55;;;6.88;;
16282;SDS011;8249;48.708;9.030;2022-08-19T13:23:47;6.78;;;6.28;;
16282;SDS011;8249;48.708;9.030;2022-08-19T13:26:15;6.28;;;5.80;;
16282;SDS011;8249;48.708;9.030;2022-08-19T13:28:43;7.07;;;6.40;;
16282;SDS011;8249;48.708;9.030;2022-08-19T13:31:29;7.35;;;6.75;;
16282;SDS011;8249;48.708;9.030;2022-08-19T13:34:19;9.13;;;6.68;;
16282;SDS011;8249;48.708;9.030;2022-08-19T13:36:53;7.07;;;6.47;;
16282;SDS011;8249;48.708;9.030;2022-08-19T13:39:22;6.30;;;5.72;;
16282;SDS011;8249;48.708;9.030;2022-08-19T13:41:49;7.30;;;6.65;;
16282;SDS011;8249;48.708;9.030;2022-08-19T13:44:16;6.82;;;6.25;;
16282;SDS011;8249;48.708;9.030;2022-08-19T13:46:44;7.28;;;6.30;;
16282;SDS011;8249;48.708;9.030;2022-08-19T13:49:12;6.47;;;6.07;;
16282;SDS011;8249;48.708;9.030;2022-08-19T13:51:40;7.45;;;6.75;;
16282;SDS011;8249;48.708;9.030;2022-08-19T13:54:09;7.50;;;6.80;;
16282;SDS011;8249;48.708;9.030;2022-08-19T13:56:40;7.70;;;7.15;;
16282;SDS011;8249;48.708;9.030;2022-08-19T13:59:09;8.30;;;7.70;;
16282;SDS011;8249;48.708;9.030;2022-08-19T14:01:36;9.00;;;8.02;;
16282;SDS011;8249;48.708;9.030;2022-08-19T14:04:03;8.88;;;7.97;;
16282;SDS011;8249;48.708;9.030;2022-08-19T14:06:33;8.68;;;8.00;;
16282;SDS011;8249;48.708;9.030;2022-08-19T14:09:00;9.48;;;8.57;;
16282;SDS011;8249;48.708;9.030;2022-08-19T14:11:28;9.73;;;8.48;;
16282;SDS011;8249;48.708;9.030;2022-08-19T14:13:56;9.85;;;8.10;;
16282;SDS011;8249;48.708;9.030;2022-08-19T14:16:24;8.55;;;7.85;;
16282;SDS011;8249;48.708;9.030;2022-08-19T14:18:52;8.80;;;8.00;;
16282;SDS011;8249;48.708;9.030;2022-08-19T14:21:20;9.73;;;8.18;;
16282;SDS011;8249;48.708;9.030;2022-08-19T14:23:50;8.50;;;7.90;;
16282;SDS011;8249;48.708;9.030;2022-08-19T14:26:18;10.52;;;8.48;;
16282;SDS011;8249;48.708;9.030;2022-08-19T14:28:46;10.40;;;9.57;;
16282;SDS011;8249;48.708;9.030;2022-08-19T14:31:16;9.85;;;9.15;;
16282;SDS011;8249;48.708;9.030;2022-08-19T14:33:44;11.40;;;10.30;;
16282;SDS011;8249;48.708;9.030;2022-08-19T14:36:12;14.32;;;13.00;;
16282;SDS011;8249;48.708;9.030;2022-08-19T14:38:39;12.40;;;11.30;;
16282;SDS011;8249;48.708;9.030;2022-08-19T14:41:07;11.95;;;10.95;;
16282;SDS011;8249;48.708;9.030;2022-08-19T14:43:35;16.70;;;15.18;;
16282;SDS011;8249;48.708;9.030;2022-08-19T14:46:03;16.63;;;14.93;;
16282;SDS011;8249;48.708;9.030;2022-08-19T14:48:32;16.27;;;14.07;;
16282;SDS011;8249;48.708;9.030;2022-08-19T14:50:59;16.42;;;14.82;;